sensor_id;sensor_type;location;lat;lon;timestamp;pressure;altitude;pressure_sealevel;temperature;humidity
19827;BME280;10074;52.018;4.726;2023-05-08T00:01:32;46471.91;;;-144.79;100.00
19827;BME280;10074;52.018;4.726;2023-05-08T00:06:32;46469.88;;;-144.79;100.00
19827;BME280;10074;52.018;4.726;2023-05-08T00:11:32;46469.88;;;-144.79;100.00
19827;BME280;10074;52.018;4.726;2023-05-08T00:16:33;46473.91;;;-144.79;100.00
19827;BME280;10074;52.018;4.726;2023-05-08T00:21:33;46469.88;;;-144.79;100.00
19827;BME280;10074;52.018;4.726;2023-05-08T00:26:34;46473.91;;;-144.79;100.00
19827;BME280;10074;52.018;4.726;2023-05-08T00:31:34;46471.91;;;-144.79;100.00
19827;BME280;10074;52.018;4.726;2023-05-08T00:36:34;46469.88;;;-144.79;100.00
19827;BME280;10074;52.018;4.726;2023-05-08T00:41:34;46471.91;;;-144.79;100.00
19827;BME280;10074;52.018;4.726;2023-05-08T00:46:35;46469.88;;;-144.79;100.00
19827;BME280;10074;52.018;4.726;2023-05-08T00:51:36;46469.88;;;-144.79;100.00
19827;BME280;10074;52.018;4.726;2023-05-08T00:56:37;46471.91;;;-144.79;100.00
19827;BME280;10074;52.018;4.726;2023-05-08T01:01:38;46469.88;;;-144.79;100.00
19827;BME280;10074;52.018;4.726;2023-05-08T01:06:39;46469.88;;;-144.79;100.00
19827;BME280;10074;52.018;4.726;2023-05-08T01:32:54;46475.91;;;-144.79;100.00
19827;BME280;10074;52.018;4.726;2023-05-08T01:38:12;46467.88;;;-144.79;100.00
19827;BME280;10074;52.018;4.726;2023-05-08T01:43:44;46471.91;;;-144.79;100.00
19827;BME280;10074;52.018;4.726;2023-05-08T01:48:56;46471.91;;;-144.79;100.00
19827;BME280;10074;52.018;4.726;2023-05-08T01:54:03;46469.88;;;-144.79;100.00
19827;BME280;10074;52.018;4.726;2023-05-08T01:59:04;46469.88;;;-144.79;100.00
19827;BME280;10074;52.018;4.726;2023-05-08T02:04:05;46467.88;;;-144.79;100.00
19827;BME280;10074;52.018;4.726;2023-05-08T02:09:08;46473.91;;;-144.79;100.00
19827;BME280;10074;52.018;4.726;2023-05-08T02:14:10;46469.88;;;-144.79;100.00
19827;BME280;10074;52.018;4.726;2023-05-08T02:19:11;46467.88;;;-144.79;100.00
19827;BME280;10074;52.018;4.726;2023-05-08T02:24:14;46473.91;;;-144.79;100.00
19827;BME280;10074;52.018;4.726;2023-05-08T02:29:16;46473.91;;;-144.79;100.00
19827;BME280;10074;52.018;4.726;2023-05-08T02:34:17;46469.88;;;-144.79;100.00
19827;BME280;10074;52.018;4.726;2023-05-08T02:39:20;46471.91;;;-144.79;100.00
19827;BME280;10074;52.018;4.726;2023-05-08T02:44:24;46471.91;;;-144.79;100.00
19827;BME280;10074;52.018;4.726;2023-05-08T02:49:31;46473.91;;;-144.79;100.00
19827;BME280;10074;52.018;4.726;2023-05-08T02:54:47;46469.88;;;-144.79;100.00
19827;BME280;10074;52.018;4.726;2023-05-08T02:59:56;46475.91;;;-144.79;100.00
19827;BME280;10074;52.018;4.726;2023-05-08T03:05:02;46473.91;;;-144.79;100.00
19827;BME280;10074;52.018;4.726;2023-05-08T03:10:10;46471.91;;;-144.79;100.00
19827;BME280;10074;52.018;4.726;2023-05-08T03:15:25;46475.91;;;-144.79;100.00
19827;BME280;10074;52.018;4.726;2023-05-08T03:20:30;46469.88;;;-144.79;100.00
19827;BME280;10074;52.018;4.726;2023-05-08T03:25:34;46471.91;;;-144.79;100.00
19827;BME280;10074;52.018;4.726;2023-05-08T03:30:40;46473.91;;;-144.79;100.00
19827;BME280;10074;52.018;4.726;2023-05-08T03:35:41;46471.91;;;-144.79;100.00
19827;BME280;10074;52.018;4.726;2023-05-08T03:40:41;46467.88;;;-144.79;100.00
19827;BME280;10074;52.018;4.726;2023-05-08T03:45:43;46469.88;;;-144.79;100.00
19827;BME280;10074;52.018;4.726;2023-05-08T03:50:44;46471.91;;;-144.79;100.00
19827;BME280;10074;52.018;4.726;2023-05-08T03:55:44;46473.91;;;-144.79;100.00
19827;BME280;10074;52.018;4.726;2023-05-08T04:01:00;46473.91;;;-144.79;100.00
19827;BME280;10074;52.018;4.726;2023-05-08T04:17:02;46473.91;;;-144.79;100.00
19827;BME280;10074;52.018;4.726;2023-05-08T04:22:07;46471.91;;;-144.79;100.00
19827;BME280;10074;52.018;4.726;2023-05-08T04:27:09;46477.91;;;-144.79;100.00
19827;BME280;10074;52.018;4.726;2023-05-08T04:32:10;46469.88;;;-144.79;100.00
19827;BME280;10074;52.018;4.726;2023-05-08T04:37:23;46467.88;;;-144.79;100.00
19827;BME280;10074;52.018;4.726;2023-05-08T04:42:23;46475.91;;;-144.79;100.00
19827;BME280;10074;52.018;4.726;2023-05-08T04:47:25;46467.88;;;-144.79;100.00
19827;BME280;10074;52.018;4.726;2023-05-08T04:52:25;46473.91;;;-144.79;100.00
19827;BME280;10074;52.018;4.726;2023-05-08T04:57:25;46471.91;;;-144.79;100.00
19827;BME280;10074;52.018;4.726;2023-05-08T05:02:26;46467.88;;;-144.79;100.00
19827;BME280;10074;52.018;4.726;2023-05-08T05:07:26;46467.88;;;-144.79;100.00
19827;BME280;10074;52.018;4.726;2023-05-08T05:12:26;46467.88;;;-144.79;100.00
19827;BME280;10074;52.018;4.726;2023-05-08T05:17:27;46471.91;;;-144.79;100.00
19827;BME280;10074;52.018;4.726;2023-05-08T05:22:31;46475.91;;;-144.79;100.00
19827;BME280;10074;52.018;4.726;2023-05-08T05:27:35;46471.91;;;-144.79;100.00
19827;BME280;10074;52.018;4.726;2023-05-08T05:32:36;46467.88;;;-144.79;100.00
19827;BME280;10074;52.018;4.726;2023-05-08T05:37:36;46469.88;;;-144.79;100.00
19827;BME280;10074;52.018;4.726;2023-05-08T05:42:37;46467.88;;;-144.79;100.00
19827;BME280;10074;52.018;4.726;2023-05-08T05:47:37;46471.91;;;-144.79;100.00
19827;BME280;10074;52.018;4.726;2023-05-08T05:52:37;46471.91;;;-144.79;100.00
19827;BME280;10074;52.018;4.726;2023-05-08T05:57:37;46473.91;;;-144.79;100.00
19827;BME280;10074;52.018;4.726;2023-05-08T06:02:38;46467.88;;;-144.79;100.00
19827;BME280;10074;52.018;4.726;2023-05-08T06:07:39;46469.88;;;-144.79;100.00
19827;BME280;10074;52.018;4.726;2023-05-08T06:12:39;46467.88;;;-144.79;100.00
19827;BME280;10074;52.018;4.726;2023-05-08T06:17:40;46471.91;;;-144.79;100.00
19827;BME280;10074;52.018;4.726;2023-05-08T06:22:41;46469.88;;;-144.79;100.00
19827;BME280;10074;52.018;4.726;2023-05-08T06:27:41;46467.88;;;-144.79;100.00
19827;BME280;10074;52.018;4.726;2023-05-08T06:32:42;46471.91;;;-144.79;100.00
19827;BME280;10074;52.018;4.726;2023-05-08T06:37:43;46467.88;;;-144.79;100.00
19827;BME280;10074;52.018;4.726;2023-05-08T06:42:43;46467.88;;;-144.79;100.00
19827;BME280;10074;52.018;4.726;2023-05-08T06:47:43;46465.88;;;-144.79;100.00
19827;BME280;10074;52.018;4.726;2023-05-08T06:52:44;46469.88;;;-144.79;100.00
19827;BME280;10074;52.018;4.726;2023-05-08T06:57:44;46469.88;;;-144.79;100.00
19827;BME280;10074;52.018;4.726;2023-05-08T07:02:44;46465.88;;;-144.79;100.00
19827;BME280;10074;52.018;4.726;2023-05-08T07:07:45;46469.88;;;-144.79;100.00
19827;BME280;10074;52.018;4.726;2023-05-08T07:12:45;46469.88;;;-144.79;100.00
19827;BME280;10074;52.018;4.726;2023-05-08T07:17:45;46463.88;;;-144.79;100.00
19827;BME280;10074;52.018;4.726;2023-05-08T07:22:45;46467.88;;;-144.79;100.00
19827;BME280;10074;52.018;4.726;2023-05-08T07:27:46;46469.88;;;-144.79;100.00
19827;BME280;10074;52.018;4.726;2023-05-08T07:32:46;46467.88;;;-144.79;100.00
19827;BME280;10074;52.018;4.726;2023-05-08T07:37:46;46467.88;;;-144.79;100.00
19827;BME280;10074;52.018;4.726;2023-05-08T07:42:47;46465.88;;;-144.79;100.00
19827;BME280;10074;52.018;4.726;2023-05-08T07:47:53;46469.88;;;-144.79;100.00
19827;BME280;10074;52.018;4.726;2023-05-08T07:52:53;46469.88;;;-144.79;100.00
19827;BME280;10074;52.018;4.726;2023-05-08T07:57:54;46469.88;;;-144.79;100.00
19827;BME280;10074;52.018;4.726;2023-05-08T08:02:54;46467.88;;;-144.79;100.00
19827;BME280;10074;52.018;4.726;2023-05-08T08:07:54;46469.88;;;-144.79;100.00
19827;BME280;10074;52.018;4.726;2023-05-08T08:12:55;46469.88;;;-144.79;100.00
19827;BME280;10074;52.018;4.726;2023-05-08T08:17:55;46463.88;;;-144.79;100.00
19827;BME280;10074;52.018;4.726;2023-05-08T08:22:55;46467.88;;;-144.79;100.00
19827;BME280;10074;52.018;4.726;2023-05-08T08:27:56;46471.91;;;-144.79;100.00
19827;BME280;10074;52.018;4.726;2023-05-08T08:32:57;46471.91;;;-144.79;100.00
19827;BME280;10074;52.018;4.726;2023-05-08T08:38:01;46471.91;;;-144.79;100.00
19827;BME280;10074;52.018;4.726;2023-05-08T08:43:01;46471.91;;;-144.79;100.00
19827;BME280;10074;52.018;4.726;2023-05-08T08:48:02;46471.91;;;-144.79;100.00
19827;BME280;10074;52.018;4.726;2023-05-08T08:53:20;46473.91;;;-144.79;100.00
19827;BME280;10074;52.018;4.726;2023-05-08T08:58:39;46471.91;;;-144.79;100.00
19827;BME280;10074;52.018;4.726;2023-05-08T09:03:42;46469.88;;;-144.79;100.00
19827;BME280;10074;52.018;4.726;2023-05-08T09:08:43;46477.91;;;-144.79;100.00
19827;BME280;10074;52.018;4.726;2023-05-08T09:13:43;46471.91;;;-144.79;100.00
19827;BME280;10074;52.018;4.726;2023-05-08T09:18:44;46471.91;;;-144.79;100.00
19827;BME280;10074;52.018;4.726;2023-05-08T09:24:01;46475.91;;;-144.79;100.00
19827;BME280;10074;52.018;4.726;2023-05-08T09:34:23;46469.88;;;-144.79;100.00
19827;BME280;10074;52.018;4.726;2023-05-08T09:39:24;46473.91;;;-144.79;100.00
19827;BME280;10074;52.018;4.726;2023-05-08T09:44:25;46475.91;;;-144.79;100.00
19827;BME280;10074;52.018;4.726;2023-05-08T09:49:25;46471.91;;;-144.79;100.00
19827;BME280;10074;52.018;4.726;2023-05-08T09:54:25;46473.91;;;-144.79;100.00
19827;BME280;10074;52.018;4.726;2023-05-08T09:59:27;46473.91;;;-144.79;100.00
19827;BME280;10074;52.018;4.726;2023-05-08T10:04:36;46473.91;;;-144.79;100.00
19827;BME280;10074;52.018;4.726;2023-05-08T10:09:37;46475.91;;;-144.79;100.00
19827;BME280;10074;52.018;4.726;2023-05-08T10:14:37;46475.91;;;-144.79;100.00
19827;BME280;10074;52.018;4.726;2023-05-08T10:19:41;46475.91;;;-144.79;100.00
19827;BME280;10074;52.018;4.726;2023-05-08T10:24:45;46473.91;;;-144.79;100.00
19827;BME280;10074;52.018;4.726;2023-05-08T10:29:53;46473.91;;;-144.79;100.00
19827;BME280;10074;52.018;4.726;2023-05-08T10:35:02;46473.91;;;-144.79;100.00
19827;BME280;10074;52.018;4.726;2023-05-08T10:40:04;46475.91;;;-144.79;100.00
19827;BME280;10074;52.018;4.726;2023-05-08T10:45:05;46467.88;;;-144.79;100.00
19827;BME280;10074;52.018;4.726;2023-05-08T10:50:26;46475.91;;;-144.79;100.00
19827;BME280;10074;52.018;4.726;2023-05-08T10:55:32;46475.91;;;-144.79;100.00
19827;BME280;10074;52.018;4.726;2023-05-08T11:05:53;46473.91;;;-144.79;100.00
19827;BME280;10074;52.018;4.726;2023-05-08T11:16:04;46471.91;;;-144.79;100.00
19827;BME280;10074;52.018;4.726;2023-05-08T11:21:14;46475.91;;;-144.79;100.00
19827;BME280;10074;52.018;4.726;2023-05-08T11:26:14;46473.91;;;-144.79;100.00
19827;BME280;10074;52.018;4.726;2023-05-08T11:31:15;46469.88;;;-144.79;100.00
19827;BME280;10074;52.018;4.726;2023-05-08T11:36:17;46469.88;;;-144.79;100.00
19827;BME280;10074;52.018;4.726;2023-05-08T11:41:22;46469.88;;;-144.79;100.00
19827;BME280;10074;52.018;4.726;2023-05-08T11:46:34;46471.91;;;-144.79;100.00
19827;BME280;10074;52.018;4.726;2023-05-08T11:51:36;46473.91;;;-144.79;100.00
19827;BME280;10074;52.018;4.726;2023-05-08T11:56:37;46473.91;;;-144.79;100.00
19827;BME280;10074;52.018;4.726;2023-05-08T12:01:38;46475.91;;;-144.79;100.00
19827;BME280;10074;52.018;4.726;2023-05-08T12:06:40;46469.88;;;-144.79;100.00
19827;BME280;10074;52.018;4.726;2023-05-08T12:11:41;46471.91;;;-144.79;100.00
19827;BME280;10074;52.018;4.726;2023-05-08T12:16:44;46477.91;;;-144.79;100.00
19827;BME280;10074;52.018;4.726;2023-05-08T12:21:45;46475.91;;;-144.79;100.00
19827;BME280;10074;52.018;4.726;2023-05-08T12:26:47;46477.91;;;-144.79;100.00
19827;BME280;10074;52.018;4.726;2023-05-08T12:31:49;46475.91;;;-144.79;100.00
19827;BME280;10074;52.018;4.726;2023-05-08T12:37:00;46475.91;;;-144.79;100.00
19827;BME280;10074;52.018;4.726;2023-05-08T12:42:01;46471.91;;;-144.79;100.00
19827;BME280;10074;52.018;4.726;2023-05-08T12:47:03;46475.91;;;-144.79;100.00
19827;BME280;10074;52.018;4.726;2023-05-08T12:52:06;46471.91;;;-144.79;100.00
19827;BME280;10074;52.018;4.726;2023-05-08T12:57:11;46471.91;;;-144.79;100.00
19827;BME280;10074;52.018;4.726;2023-05-08T13:02:16;46471.91;;;-144.79;100.00
19827;BME280;10074;52.018;4.726;2023-05-08T13:07:16;46469.88;;;-144.79;100.00
19827;BME280;10074;52.018;4.726;2023-05-08T13:12:17;46471.91;;;-144.79;100.00
19827;BME280;10074;52.018;4.726;2023-05-08T13:17:18;46471.91;;;-144.79;100.00
19827;BME280;10074;52.018;4.726;2023-05-08T13:22:18;46471.91;;;-144.79;100.00
19827;BME280;10074;52.018;4.726;2023-05-08T13:27:22;46467.88;;;-144.79;100.00
19827;BME280;10074;52.018;4.726;2023-05-08T13:32:22;46471.91;;;-144.79;100.00
19827;BME280;10074;52.018;4.726;2023-05-08T13:37:22;46471.91;;;-144.79;100.00
19827;BME280;10074;52.018;4.726;2023-05-08T13:42:23;46467.88;;;-144.79;100.00
19827;BME280;10074;52.018;4.726;2023-05-08T13:47:23;46469.88;;;-144.79;100.00
19827;BME280;10074;52.018;4.726;2023-05-08T13:52:24;46469.88;;;-144.79;100.00
19827;BME280;10074;52.018;4.726;2023-05-08T13:57:25;46471.91;;;-144.79;100.00
19827;BME280;10074;52.018;4.726;2023-05-08T14:02:25;46471.91;;;-144.79;100.00
19827;BME280;10074;52.018;4.726;2023-05-08T14:07:26;46471.91;;;-144.79;100.00
19827;BME280;10074;52.018;4.726;2023-05-08T14:12:27;46471.91;;;-144.79;100.00
19827;BME280;10074;52.018;4.726;2023-05-08T14:17:27;46471.91;;;-144.79;100.00
19827;BME280;10074;52.018;4.726;2023-05-08T14:22:27;46471.91;;;-144.79;100.00
19827;BME280;10074;52.018;4.726;2023-05-08T14:27:28;46469.88;;;-144.79;100.00
19827;BME280;10074;52.018;4.726;2023-05-08T14:32:28;46471.91;;;-144.79;100.00
19827;BME280;10074;52.018;4.726;2023-05-08T14:37:28;46471.91;;;-144.79;100.00
19827;BME280;10074;52.018;4.726;2023-05-08T14:42:29;46469.88;;;-144.79;100.00
19827;BME280;10074;52.018;4.726;2023-05-08T14:47:29;46449.84;;;-144.79;100.00
19827;BME280;10074;52.018;4.726;2023-05-08T14:52:31;46375.66;;;-144.79;100.00
19827;BME280;10074;52.018;4.726;2023-05-08T14:57:32;46411.75;;;-144.79;100.00
19827;BME280;10074;52.018;4.726;2023-05-08T15:02:32;46389.69;;;-144.79;100.00
19827;BME280;10074;52.018;4.726;2023-05-08T15:07:33;46387.69;;;-144.79;100.00
19827;BME280;10074;52.018;4.726;2023-05-08T15:12:33;46379.66;;;-144.79;100.00
19827;BME280;10074;52.018;4.726;2023-05-08T15:17:34;46371.63;;;-144.79;100.00
19827;BME280;10074;52.018;4.726;2023-05-08T15:22:35;46359.59;;;-144.79;100.00
19827;BME280;10074;52.018;4.726;2023-05-08T15:27:36;46353.59;;;-144.79;100.00
19827;BME280;10074;52.018;4.726;2023-05-08T15:32:36;46349.59;;;-144.79;100.00
19827;BME280;10074;52.018;4.726;2023-05-08T15:37:37;46357.59;;;-144.79;100.00
19827;BME280;10074;52.018;4.726;2023-05-08T15:42:38;46347.56;;;-144.79;100.00
19827;BME280;10074;52.018;4.726;2023-05-08T15:47:39;46351.59;;;-144.79;100.00
19827;BME280;10074;52.018;4.726;2023-05-08T15:52:39;46345.56;;;-144.79;100.00
19827;BME280;10074;52.018;4.726;2023-05-08T15:57:39;46345.56;;;-144.79;100.00
19827;BME280;10074;52.018;4.726;2023-05-08T16:02:40;46363.63;;;-144.79;100.00
19827;BME280;10074;52.018;4.726;2023-05-08T16:07:40;46355.59;;;-144.79;100.00
19827;BME280;10074;52.018;4.726;2023-05-08T16:12:40;46355.59;;;-144.79;100.00
19827;BME280;10074;52.018;4.726;2023-05-08T16:17:41;46347.56;;;-144.79;100.00
19827;BME280;10074;52.018;4.726;2023-05-08T16:22:41;46355.59;;;-144.79;100.00
19827;BME280;10074;52.018;4.726;2023-05-08T16:27:41;46355.59;;;-144.79;100.00
19827;BME280;10074;52.018;4.726;2023-05-08T16:32:42;46349.59;;;-144.79;100.00
19827;BME280;10074;52.018;4.726;2023-05-08T16:37:46;46361.63;;;-144.79;100.00
19827;BME280;10074;52.018;4.726;2023-05-08T16:42:46;46373.66;;;-144.79;100.00
19827;BME280;10074;52.018;4.726;2023-05-08T16:47:46;46353.59;;;-144.79;100.00
19827;BME280;10074;52.018;4.726;2023-05-08T16:52:47;46359.59;;;-144.79;100.00
19827;BME280;10074;52.018;4.726;2023-05-08T16:57:47;46361.63;;;-144.79;100.00
19827;BME280;10074;52.018;4.726;2023-05-08T17:02:47;46369.63;;;-144.79;100.00
19827;BME280;10074;52.018;4.726;2023-05-08T17:07:47;46353.59;;;-144.79;100.00
19827;BME280;10074;52.018;4.726;2023-05-08T17:12:48;46369.63;;;-144.79;100.00
19827;BME280;10074;52.018;4.726;2023-05-08T17:17:48;46367.63;;;-144.79;100.00
19827;BME280;10074;52.018;4.726;2023-05-08T17:22:51;46359.59;;;-144.79;100.00
19827;BME280;10074;52.018;4.726;2023-05-08T17:27:52;46363.63;;;-144.79;100.00
19827;BME280;10074;52.018;4.726;2023-05-08T17:32:52;46391.69;;;-144.79;100.00
19827;BME280;10074;52.018;4.726;2023-05-08T17:37:53;46413.75;;;-144.79;100.00
19827;BME280;10074;52.018;4.726;2023-05-08T17:42:54;46407.72;;;-144.79;100.00
19827;BME280;10074;52.018;4.726;2023-05-08T17:47:54;46405.72;;;-144.79;100.00
19827;BME280;10074;52.018;4.726;2023-05-08T17:52:54;46405.72;;;-144.79;100.00
19827;BME280;10074;52.018;4.726;2023-05-08T17:57:55;46411.75;;;-144.79;100.00
19827;BME280;10074;52.018;4.726;2023-05-08T18:02:55;46405.72;;;-144.79;100.00
19827;BME280;10074;52.018;4.726;2023-05-08T18:07:55;46411.75;;;-144.79;100.00
19827;BME280;10074;52.018;4.726;2023-05-08T18:12:56;46417.75;;;-144.79;100.00
19827;BME280;10074;52.018;4.726;2023-05-08T18:17:56;46419.75;;;-144.79;100.00
19827;BME280;10074;52.018;4.726;2023-05-08T18:22:57;46405.72;;;-144.79;100.00
19827;BME280;10074;52.018;4.726;2023-05-08T18:27:57;46421.78;;;-144.79;100.00
19827;BME280;10074;52.018;4.726;2023-05-08T18:32:58;46423.78;;;-144.79;100.00
19827;BME280;10074;52.018;4.726;2023-05-08T18:37:58;46425.78;;;-144.79;100.00
19827;BME280;10074;52.018;4.726;2023-05-08T18:42:58;46427.78;;;-144.79;100.00
19827;BME280;10074;52.018;4.726;2023-05-08T18:47:58;46431.78;;;-144.79;100.00
19827;BME280;10074;52.018;4.726;2023-05-08T18:52:59;46429.78;;;-144.79;100.00
19827;BME280;10074;52.018;4.726;2023-05-08T18:57:59;46431.78;;;-144.79;100.00
19827;BME280;10074;52.018;4.726;2023-05-08T19:03:00;46427.78;;;-144.79;100.00
19827;BME280;10074;52.018;4.726;2023-05-08T19:08:00;46443.81;;;-144.79;100.00
19827;BME280;10074;52.018;4.726;2023-05-08T19:13:00;46433.81;;;-144.79;100.00
19827;BME280;10074;52.018;4.726;2023-05-08T19:18:01;46447.84;;;-144.79;100.00
19827;BME280;10074;52.018;4.726;2023-05-08T19:23:01;46441.81;;;-144.79;100.00
19827;BME280;10074;52.018;4.726;2023-05-08T19:28:02;46441.81;;;-144.79;100.00
19827;BME280;10074;52.018;4.726;2023-05-08T19:33:03;46439.81;;;-144.79;100.00
19827;BME280;10074;52.018;4.726;2023-05-08T19:38:03;46435.81;;;-144.79;100.00
19827;BME280;10074;52.018;4.726;2023-05-08T19:43:04;46435.81;;;-144.79;100.00
19827;BME280;10074;52.018;4.726;2023-05-08T19:48:04;46443.81;;;-144.79;100.00
19827;BME280;10074;52.018;4.726;2023-05-08T19:53:05;46443.81;;;-144.79;100.00
19827;BME280;10074;52.018;4.726;2023-05-08T19:58:05;46443.81;;;-144.79;100.00
19827;BME280;10074;52.018;4.726;2023-05-08T20:03:05;46445.84;;;-144.79;100.00
19827;BME280;10074;52.018;4.726;2023-05-08T20:08:05;46441.81;;;-144.79;100.00
19827;BME280;10074;52.018;4.726;2023-05-08T20:13:06;46435.81;;;-144.79;100.00
19827;BME280;10074;52.018;4.726;2023-05-08T20:18:06;46443.81;;;-144.79;100.00
19827;BME280;10074;52.018;4.726;2023-05-08T20:23:06;46435.81;;;-144.79;100.00
19827;BME280;10074;52.018;4.726;2023-05-08T20:28:07;46443.81;;;-144.79;100.00
19827;BME280;10074;52.018;4.726;2023-05-08T20:33:07;46443.81;;;-144.79;100.00
19827;BME280;10074;52.018;4.726;2023-05-08T20:38:07;46447.84;;;-144.79;100.00
19827;BME280;10074;52.018;4.726;2023-05-08T20:43:08;46443.81;;;-144.79;100.00
19827;BME280;10074;52.018;4.726;2023-05-08T20:48:08;46447.84;;;-144.79;100.00
19827;BME280;10074;52.018;4.726;2023-05-08T20:53:09;46443.81;;;-144.79;100.00
19827;BME280;10074;52.018;4.726;2023-05-08T20:58:09;46447.84;;;-144.79;100.00
19827;BME280;10074;52.018;4.726;2023-05-08T21:03:10;46455.84;;;-144.79;100.00
19827;BME280;10074;52.018;4.726;2023-05-08T21:08:10;46453.84;;;-144.79;100.00
19827;BME280;10074;52.018;4.726;2023-05-08T21:13:10;46457.88;;;-144.79;100.00
19827;BME280;10074;52.018;4.726;2023-05-08T21:18:10;46467.88;;;-144.79;100.00
19827;BME280;10074;52.018;4.726;2023-05-08T21:23:11;46463.88;;;-144.79;100.00
19827;BME280;10074;52.018;4.726;2023-05-08T21:28:11;46463.88;;;-144.79;100.00
19827;BME280;10074;52.018;4.726;2023-05-08T21:33:12;46463.88;;;-144.79;100.00
19827;BME280;10074;52.018;4.726;2023-05-08T21:38:12;46465.88;;;-144.79;100.00
19827;BME280;10074;52.018;4.726;2023-05-08T21:43:13;46459.88;;;-144.79;100.00
19827;BME280;10074;52.018;4.726;2023-05-08T21:48:13;46465.88;;;-144.79;100.00
19827;BME280;10074;52.018;4.726;2023-05-08T21:53:13;46459.88;;;-144.79;100.00
19827;BME280;10074;52.018;4.726;2023-05-08T21:58:14;46461.88;;;-144.79;100.00
19827;BME280;10074;52.018;4.726;2023-05-08T22:03:14;46463.88;;;-144.79;100.00
19827;BME280;10074;52.018;4.726;2023-05-08T22:08:15;46463.88;;;-144.79;100.00
19827;BME280;10074;52.018;4.726;2023-05-08T22:13:15;46461.88;;;-144.79;100.00
19827;BME280;10074;52.018;4.726;2023-05-08T22:18:16;46467.88;;;-144.79;100.00
19827;BME280;10074;52.018;4.726;2023-05-08T22:23:16;46467.88;;;-144.79;100.00
19827;BME280;10074;52.018;4.726;2023-05-08T22:28:16;46461.88;;;-144.79;100.00
19827;BME280;10074;52.018;4.726;2023-05-08T22:33:17;46461.88;;;-144.79;100.00
19827;BME280;10074;52.018;4.726;2023-05-08T22:38:17;46463.88;;;-144.79;100.00
19827;BME280;10074;52.018;4.726;2023-05-08T22:43:18;46461.88;;;-144.79;100.00
19827;BME280;10074;52.018;4.726;2023-05-08T22:48:18;46465.88;;;-144.79;100.00
19827;BME280;10074;52.018;4.726;2023-05-08T22:53:19;46467.88;;;-144.79;100.00
19827;BME280;10074;52.018;4.726;2023-05-08T22:58:19;46469.88;;;-144.79;100.00
19827;BME280;10074;52.018;4.726;2023-05-08T23:03:20;46471.91;;;-144.79;100.00
19827;BME280;10074;52.018;4.726;2023-05-08T23:08:20;46469.88;;;-144.79;100.00
19827;BME280;10074;52.018;4.726;2023-05-08T23:13:21;46467.88;;;-144.79;100.00
19827;BME280;10074;52.018;4.726;2023-05-08T23:18:22;46467.88;;;-144.79;100.00
19827;BME280;10074;52.018;4.726;2023-05-08T23:23:22;46467.88;;;-144.79;100.00
19827;BME280;10074;52.018;4.726;2023-05-08T23:28:23;46467.88;;;-144.79;100.00
19827;BME280;10074;52.018;4.726;2023-05-08T23:33:23;46467.88;;;-144.79;100.00
19827;BME280;10074;52.018;4.726;2023-05-08T23:38:24;46471.91;;;-144.79;100.00
19827;BME280;10074;52.018;4.726;2023-05-08T23:43:24;46471.91;;;-144.79;100.00
19827;BME280;10074;52.018;4.726;2023-05-08T23:48:25;46467.88;;;-144.79;100.00
19827;BME280;10074;52.018;4.726;2023-05-08T23:53:26;46465.88;;;-144.79;100.00
19827;BME280;10074;52.018;4.726;2023-05-08T23:58:26;46465.88;;;-144.79;100.00
